sensor_id;sensor_type;location;lat;lon;timestamp;P1;durP1;ratioP1;P2;durP2;ratioP2
5845;SDS011;2949;50.778;7.094;2023-07-31T00:01:06;2.03;;;1.93;;
5845;SDS011;2949;50.778;7.094;2023-07-31T00:03:32;5.60;;;2.70;;
5845;SDS011;2949;50.778;7.094;2023-07-31T00:05:57;5.07;;;2.50;;
5845;SDS011;2949;50.778;7.094;2023-07-31T00:08:23;4.10;;;2.47;;
5845;SDS011;2949;50.778;7.094;2023-07-31T00:10:51;6.00;;;2.70;;
5845;SDS011;2949;50.778;7.094;2023-07-31T00:13:17;9.97;;;2.53;;
5845;SDS011;2949;50.778;7.094;2023-07-31T00:15:43;6.20;;;2.73;;
5845;SDS011;2949;50.778;7.094;2023-07-31T00:18:08;4.13;;;2.37;;
5845;SDS011;2949;50.778;7.094;2023-07-31T00:20:34;6.60;;;2.87;;
5845;SDS011;2949;50.778;7.094;2023-07-31T00:22:59;12.37;;;3.50;;
5845;SDS011;2949;50.778;7.094;2023-07-31T00:25:25;3.43;;;2.13;;
5845;SDS011;2949;50.778;7.094;2023-07-31T00:27:50;5.50;;;2.17;;
5845;SDS011;2949;50.778;7.094;2023-07-31T00:30:16;5.00;;;2.50;;
5845;SDS011;2949;50.778;7.094;2023-07-31T00:32:41;7.33;;;2.63;;
5845;SDS011;2949;50.778;7.094;2023-07-31T00:35:07;5.97;;;2.40;;
5845;SDS011;2949;50.778;7.094;2023-07-31T00:37:32;5.73;;;2.20;;
5845;SDS011;2949;50.778;7.094;2023-07-31T00:39:58;6.27;;;2.37;;
5845;SDS011;2949;50.778;7.094;2023-07-31T00:42:24;4.37;;;1.97;;
5845;SDS011;2949;50.778;7.094;2023-07-31T00:44:49;6.03;;;1.80;;
5845;SDS011;2949;50.778;7.094;2023-07-31T00:47:15;3.23;;;2.10;;
5845;SDS011;2949;50.778;7.094;2023-07-31T00:49:40;3.10;;;1.60;;
5845;SDS011;2949;50.778;7.094;2023-07-31T00:52:06;6.63;;;2.30;;
5845;SDS011;2949;50.778;7.094;2023-07-31T00:54:32;3.80;;;1.70;;
5845;SDS011;2949;50.778;7.094;2023-07-31T00:56:58;3.00;;;1.73;;
5845;SDS011;2949;50.778;7.094;2023-07-31T00:59:25;2.60;;;1.77;;
5845;SDS011;2949;50.778;7.094;2023-07-31T01:01:50;3.27;;;1.83;;
5845;SDS011;2949;50.778;7.094;2023-07-31T01:04:17;2.43;;;1.87;;
5845;SDS011;2949;50.778;7.094;2023-07-31T01:11:45;3.40;;;1.80;;
5845;SDS011;2949;50.778;7.094;2023-07-31T01:14:14;4.30;;;1.70;;
5845;SDS011;2949;50.778;7.094;2023-07-31T01:16:39;6.83;;;1.70;;
5845;SDS011;2949;50.778;7.094;2023-07-31T01:19:05;3.57;;;2.00;;
5845;SDS011;2949;50.778;7.094;2023-07-31T01:21:41;5.00;;;2.40;;
5845;SDS011;2949;50.778;7.094;2023-07-31T01:24:20;4.00;;;1.80;;
5845;SDS011;2949;50.778;7.094;2023-07-31T01:27:09;2.40;;;1.80;;
5845;SDS011;2949;50.778;7.094;2023-07-31T01:32:42;3.90;;;1.43;;
5845;SDS011;2949;50.778;7.094;2023-07-31T01:35:08;6.03;;;1.97;;
5845;SDS011;2949;50.778;7.094;2023-07-31T01:37:34;2.20;;;2.00;;
5845;SDS011;2949;50.778;7.094;2023-07-31T01:40:00;4.67;;;1.77;;
5845;SDS011;2949;50.778;7.094;2023-07-31T01:42:26;1.73;;;1.60;;
5845;SDS011;2949;50.778;7.094;2023-07-31T01:44:51;1.47;;;1.37;;
5845;SDS011;2949;50.778;7.094;2023-07-31T01:47:17;4.10;;;1.73;;
5845;SDS011;2949;50.778;7.094;2023-07-31T01:49:42;7.90;;;1.67;;
5845;SDS011;2949;50.778;7.094;2023-07-31T01:52:08;9.70;;;1.90;;
5845;SDS011;2949;50.778;7.094;2023-07-31T01:54:33;2.80;;;2.33;;
5845;SDS011;2949;50.778;7.094;2023-07-31T01:56:59;3.67;;;1.53;;
5845;SDS011;2949;50.778;7.094;2023-07-31T01:59:24;3.77;;;2.40;;
5845;SDS011;2949;50.778;7.094;2023-07-31T02:01:50;2.47;;;1.93;;
5845;SDS011;2949;50.778;7.094;2023-07-31T02:04:16;3.43;;;2.00;;
5845;SDS011;2949;50.778;7.094;2023-07-31T02:06:41;3.37;;;1.80;;
5845;SDS011;2949;50.778;7.094;2023-07-31T02:09:07;6.67;;;2.17;;
5845;SDS011;2949;50.778;7.094;2023-07-31T02:11:32;4.07;;;1.70;;
5845;SDS011;2949;50.778;7.094;2023-07-31T02:13:58;6.83;;;1.97;;
5845;SDS011;2949;50.778;7.094;2023-07-31T02:16:23;3.03;;;1.80;;
5845;SDS011;2949;50.778;7.094;2023-07-31T02:18:49;5.63;;;2.10;;
5845;SDS011;2949;50.778;7.094;2023-07-31T02:21:14;4.47;;;2.40;;
5845;SDS011;2949;50.778;7.094;2023-07-31T02:23:40;4.33;;;2.53;;
5845;SDS011;2949;50.778;7.094;2023-07-31T02:26:05;3.93;;;2.40;;
5845;SDS011;2949;50.778;7.094;2023-07-31T02:28:31;7.00;;;2.40;;
5845;SDS011;2949;50.778;7.094;2023-07-31T02:30:56;4.10;;;1.70;;
5845;SDS011;2949;50.778;7.094;2023-07-31T02:33:22;5.53;;;2.07;;
5845;SDS011;2949;50.778;7.094;2023-07-31T02:35:47;5.17;;;2.10;;
5845;SDS011;2949;50.778;7.094;2023-07-31T02:38:13;7.30;;;1.90;;
5845;SDS011;2949;50.778;7.094;2023-07-31T02:40:41;3.80;;;2.20;;
5845;SDS011;2949;50.778;7.094;2023-07-31T02:43:07;15.63;;;2.53;;
5845;SDS011;2949;50.778;7.094;2023-07-31T02:45:33;3.97;;;2.60;;
5845;SDS011;2949;50.778;7.094;2023-07-31T02:47:59;4.23;;;2.47;;
5845;SDS011;2949;50.778;7.094;2023-07-31T02:50:24;7.93;;;2.40;;
5845;SDS011;2949;50.778;7.094;2023-07-31T02:52:50;2.27;;;1.80;;
5845;SDS011;2949;50.778;7.094;2023-07-31T02:55:15;9.10;;;2.20;;
5845;SDS011;2949;50.778;7.094;2023-07-31T02:57:41;2.00;;;1.73;;
5845;SDS011;2949;50.778;7.094;2023-07-31T03:00:07;10.23;;;2.47;;
5845;SDS011;2949;50.778;7.094;2023-07-31T03:02:32;5.10;;;2.80;;
5845;SDS011;2949;50.778;7.094;2023-07-31T03:04:58;3.17;;;2.13;;
5845;SDS011;2949;50.778;7.094;2023-07-31T03:07:24;7.30;;;2.70;;
5845;SDS011;2949;50.778;7.094;2023-07-31T03:09:49;4.80;;;2.50;;
5845;SDS011;2949;50.778;7.094;2023-07-31T03:12:15;8.47;;;2.40;;
5845;SDS011;2949;50.778;7.094;2023-07-31T03:14:40;6.07;;;2.40;;
5845;SDS011;2949;50.778;7.094;2023-07-31T03:17:06;3.43;;;2.27;;
5845;SDS011;2949;50.778;7.094;2023-07-31T03:19:32;15.57;;;2.87;;
5845;SDS011;2949;50.778;7.094;2023-07-31T03:21:58;5.30;;;2.50;;
5845;SDS011;2949;50.778;7.094;2023-07-31T03:24:26;3.90;;;2.50;;
5845;SDS011;2949;50.778;7.094;2023-07-31T03:26:53;2.90;;;2.00;;
5845;SDS011;2949;50.778;7.094;2023-07-31T03:29:18;4.47;;;2.93;;
5845;SDS011;2949;50.778;7.094;2023-07-31T03:31:44;3.47;;;2.20;;
5845;SDS011;2949;50.778;7.094;2023-07-31T03:34:09;4.57;;;2.37;;
5845;SDS011;2949;50.778;7.094;2023-07-31T03:36:35;4.50;;;2.30;;
5845;SDS011;2949;50.778;7.094;2023-07-31T03:39:00;7.20;;;2.93;;
5845;SDS011;2949;50.778;7.094;2023-07-31T03:41:26;7.67;;;2.80;;
5845;SDS011;2949;50.778;7.094;2023-07-31T03:43:51;6.00;;;2.90;;
5845;SDS011;2949;50.778;7.094;2023-07-31T03:46:17;2.80;;;2.20;;
5845;SDS011;2949;50.778;7.094;2023-07-31T03:48:43;4.63;;;2.80;;
5845;SDS011;2949;50.778;7.094;2023-07-31T03:51:08;5.13;;;2.93;;
5845;SDS011;2949;50.778;7.094;2023-07-31T03:53:34;5.27;;;2.43;;
5845;SDS011;2949;50.778;7.094;2023-07-31T03:55:59;3.03;;;2.10;;
5845;SDS011;2949;50.778;7.094;2023-07-31T03:58:25;5.17;;;2.57;;
5845;SDS011;2949;50.778;7.094;2023-07-31T04:00:50;5.27;;;2.77;;
5845;SDS011;2949;50.778;7.094;2023-07-31T04:03:16;6.40;;;2.70;;
5845;SDS011;2949;50.778;7.094;2023-07-31T04:05:41;5.40;;;2.60;;
5845;SDS011;2949;50.778;7.094;2023-07-31T04:08:07;5.73;;;2.47;;
5845;SDS011;2949;50.778;7.094;2023-07-31T04:10:32;9.13;;;2.20;;
5845;SDS011;2949;50.778;7.094;2023-07-31T04:12:59;2.90;;;2.33;;
5845;SDS011;2949;50.778;7.094;2023-07-31T04:15:25;7.67;;;2.60;;
5845;SDS011;2949;50.778;7.094;2023-07-31T04:17:51;5.93;;;2.50;;
5845;SDS011;2949;50.778;7.094;2023-07-31T04:20:16;3.90;;;2.60;;
5845;SDS011;2949;50.778;7.094;2023-07-31T04:22:42;2.97;;;2.67;;
5845;SDS011;2949;50.778;7.094;2023-07-31T04:25:08;6.33;;;2.47;;
5845;SDS011;2949;50.778;7.094;2023-07-31T04:27:33;4.27;;;2.53;;
5845;SDS011;2949;50.778;7.094;2023-07-31T04:29:59;6.37;;;3.00;;
5845;SDS011;2949;50.778;7.094;2023-07-31T04:32:24;8.20;;;3.10;;
5845;SDS011;2949;50.778;7.094;2023-07-31T04:34:50;7.70;;;2.60;;
5845;SDS011;2949;50.778;7.094;2023-07-31T04:37:15;8.57;;;3.10;;
5845;SDS011;2949;50.778;7.094;2023-07-31T04:39:41;3.77;;;2.10;;
5845;SDS011;2949;50.778;7.094;2023-07-31T04:42:06;5.13;;;2.97;;
5845;SDS011;2949;50.778;7.094;2023-07-31T04:44:32;8.03;;;2.43;;
5845;SDS011;2949;50.778;7.094;2023-07-31T04:46:57;3.73;;;2.27;;
5845;SDS011;2949;50.778;7.094;2023-07-31T04:49:23;8.60;;;2.93;;
5845;SDS011;2949;50.778;7.094;2023-07-31T04:51:48;4.80;;;2.80;;
5845;SDS011;2949;50.778;7.094;2023-07-31T04:54:14;2.50;;;2.03;;
5845;SDS011;2949;50.778;7.094;2023-07-31T04:56:42;4.10;;;2.60;;
5845;SDS011;2949;50.778;7.094;2023-07-31T04:59:08;9.67;;;2.70;;
5845;SDS011;2949;50.778;7.094;2023-07-31T05:01:33;4.60;;;2.40;;
5845;SDS011;2949;50.778;7.094;2023-07-31T05:03:59;7.43;;;2.70;;
5845;SDS011;2949;50.778;7.094;2023-07-31T05:06:24;9.20;;;2.70;;
5845;SDS011;2949;50.778;7.094;2023-07-31T05:08:50;5.00;;;2.67;;
5845;SDS011;2949;50.778;7.094;2023-07-31T05:11:15;5.27;;;2.90;;
5845;SDS011;2949;50.778;7.094;2023-07-31T05:13:41;6.73;;;2.53;;
5845;SDS011;2949;50.778;7.094;2023-07-31T05:16:06;10.70;;;2.97;;
5845;SDS011;2949;50.778;7.094;2023-07-31T05:18:32;12.10;;;3.30;;
5845;SDS011;2949;50.778;7.094;2023-07-31T05:20:57;3.70;;;2.37;;
5845;SDS011;2949;50.778;7.094;2023-07-31T05:23:23;10.80;;;3.00;;
5845;SDS011;2949;50.778;7.094;2023-07-31T05:25:48;9.63;;;2.30;;
5845;SDS011;2949;50.778;7.094;2023-07-31T05:28:14;3.60;;;2.70;;
5845;SDS011;2949;50.778;7.094;2023-07-31T05:30:39;6.23;;;3.00;;
5845;SDS011;2949;50.778;7.094;2023-07-31T05:33:05;6.60;;;2.57;;
5845;SDS011;2949;50.778;7.094;2023-07-31T05:35:31;5.63;;;2.97;;
5845;SDS011;2949;50.778;7.094;2023-07-31T05:37:56;7.77;;;2.80;;
5845;SDS011;2949;50.778;7.094;2023-07-31T05:40:22;4.93;;;2.97;;
5845;SDS011;2949;50.778;7.094;2023-07-31T05:42:47;5.93;;;3.17;;
5845;SDS011;2949;50.778;7.094;2023-07-31T05:45:13;3.30;;;2.77;;
5845;SDS011;2949;50.778;7.094;2023-07-31T05:47:38;2.90;;;2.20;;
5845;SDS011;2949;50.778;7.094;2023-07-31T05:50:04;3.23;;;2.50;;
5845;SDS011;2949;50.778;7.094;2023-07-31T05:52:30;4.93;;;2.80;;
5845;SDS011;2949;50.778;7.094;2023-07-31T05:54:56;4.47;;;2.40;;
5845;SDS011;2949;50.778;7.094;2023-07-31T05:57:21;6.10;;;2.53;;
5845;SDS011;2949;50.778;7.094;2023-07-31T05:59:47;8.67;;;3.40;;
5845;SDS011;2949;50.778;7.094;2023-07-31T06:02:12;5.93;;;2.60;;
5845;SDS011;2949;50.778;7.094;2023-07-31T06:04:38;2.73;;;2.03;;
5845;SDS011;2949;50.778;7.094;2023-07-31T06:07:03;12.10;;;2.50;;
5845;SDS011;2949;50.778;7.094;2023-07-31T06:09:29;3.73;;;2.43;;
5845;SDS011;2949;50.778;7.094;2023-07-31T06:11:55;6.20;;;2.47;;
5845;SDS011;2949;50.778;7.094;2023-07-31T06:14:20;5.07;;;2.50;;
5845;SDS011;2949;50.778;7.094;2023-07-31T06:16:46;6.53;;;2.37;;
5845;SDS011;2949;50.778;7.094;2023-07-31T06:19:11;4.53;;;2.80;;
5845;SDS011;2949;50.778;7.094;2023-07-31T06:21:37;3.73;;;2.00;;
5845;SDS011;2949;50.778;7.094;2023-07-31T06:24:04;4.87;;;2.37;;
5845;SDS011;2949;50.778;7.094;2023-07-31T06:26:30;5.77;;;3.10;;
5845;SDS011;2949;50.778;7.094;2023-07-31T06:28:56;3.80;;;2.77;;
5845;SDS011;2949;50.778;7.094;2023-07-31T06:31:21;6.63;;;2.70;;
5845;SDS011;2949;50.778;7.094;2023-07-31T06:33:51;3.93;;;2.50;;
5845;SDS011;2949;50.778;7.094;2023-07-31T06:36:17;5.87;;;2.70;;
5845;SDS011;2949;50.778;7.094;2023-07-31T06:38:43;6.60;;;2.60;;
5845;SDS011;2949;50.778;7.094;2023-07-31T06:41:08;5.70;;;2.93;;
5845;SDS011;2949;50.778;7.094;2023-07-31T06:43:35;3.60;;;2.37;;
5845;SDS011;2949;50.778;7.094;2023-07-31T06:46:05;6.87;;;2.50;;
5845;SDS011;2949;50.778;7.094;2023-07-31T06:48:31;8.43;;;3.90;;
5845;SDS011;2949;50.778;7.094;2023-07-31T06:50:57;6.10;;;2.80;;
5845;SDS011;2949;50.778;7.094;2023-07-31T06:53:23;6.77;;;3.23;;
5845;SDS011;2949;50.778;7.094;2023-07-31T06:55:48;5.63;;;2.30;;
5845;SDS011;2949;50.778;7.094;2023-07-31T06:58:16;5.33;;;3.07;;
5845;SDS011;2949;50.778;7.094;2023-07-31T07:00:42;4.10;;;3.10;;
5845;SDS011;2949;50.778;7.094;2023-07-31T07:03:07;8.53;;;2.60;;
5845;SDS011;2949;50.778;7.094;2023-07-31T07:05:33;10.97;;;2.90;;
5845;SDS011;2949;50.778;7.094;2023-07-31T07:07:58;6.33;;;3.43;;
5845;SDS011;2949;50.778;7.094;2023-07-31T07:10:24;3.33;;;2.30;;
5845;SDS011;2949;50.778;7.094;2023-07-31T07:12:49;7.10;;;3.03;;
5845;SDS011;2949;50.778;7.094;2023-07-31T07:15:15;3.63;;;2.30;;
5845;SDS011;2949;50.778;7.094;2023-07-31T07:17:41;4.77;;;2.50;;
5845;SDS011;2949;50.778;7.094;2023-07-31T07:20:07;11.30;;;2.67;;
5845;SDS011;2949;50.778;7.094;2023-07-31T07:22:33;4.33;;;2.67;;
5845;SDS011;2949;50.778;7.094;2023-07-31T07:24:58;2.43;;;2.20;;
5845;SDS011;2949;50.778;7.094;2023-07-31T07:27:24;4.77;;;2.60;;
5845;SDS011;2949;50.778;7.094;2023-07-31T07:29:50;5.33;;;2.53;;
5845;SDS011;2949;50.778;7.094;2023-07-31T07:32:17;8.03;;;2.87;;
5845;SDS011;2949;50.778;7.094;2023-07-31T07:34:43;6.40;;;3.57;;
5845;SDS011;2949;50.778;7.094;2023-07-31T07:37:08;3.33;;;2.37;;
5845;SDS011;2949;50.778;7.094;2023-07-31T07:39:34;6.57;;;2.90;;
5845;SDS011;2949;50.778;7.094;2023-07-31T07:42:00;3.53;;;2.30;;
5845;SDS011;2949;50.778;7.094;2023-07-31T07:44:25;4.23;;;2.60;;
5845;SDS011;2949;50.778;7.094;2023-07-31T07:46:51;4.80;;;2.83;;
5845;SDS011;2949;50.778;7.094;2023-07-31T07:49:17;7.17;;;3.20;;
5845;SDS011;2949;50.778;7.094;2023-07-31T07:51:43;3.00;;;2.70;;
5845;SDS011;2949;50.778;7.094;2023-07-31T07:54:08;8.20;;;2.90;;
5845;SDS011;2949;50.778;7.094;2023-07-31T07:56:34;7.33;;;3.53;;
5845;SDS011;2949;50.778;7.094;2023-07-31T07:59:01;6.87;;;3.27;;
5845;SDS011;2949;50.778;7.094;2023-07-31T08:01:26;13.27;;;4.00;;
5845;SDS011;2949;50.778;7.094;2023-07-31T08:03:52;6.40;;;3.10;;
5845;SDS011;2949;50.778;7.094;2023-07-31T08:06:17;3.90;;;2.50;;
5845;SDS011;2949;50.778;7.094;2023-07-31T08:08:43;6.40;;;3.33;;
5845;SDS011;2949;50.778;7.094;2023-07-31T08:11:08;9.73;;;2.77;;
5845;SDS011;2949;50.778;7.094;2023-07-31T08:13:34;6.90;;;3.27;;
5845;SDS011;2949;50.778;7.094;2023-07-31T08:16:01;7.60;;;2.93;;
5845;SDS011;2949;50.778;7.094;2023-07-31T08:18:27;5.63;;;2.83;;
5845;SDS011;2949;50.778;7.094;2023-07-31T08:20:53;6.27;;;2.90;;
5845;SDS011;2949;50.778;7.094;2023-07-31T08:23:18;6.50;;;3.00;;
5845;SDS011;2949;50.778;7.094;2023-07-31T08:25:44;4.50;;;3.03;;
5845;SDS011;2949;50.778;7.094;2023-07-31T08:28:10;8.13;;;3.60;;
5845;SDS011;2949;50.778;7.094;2023-07-31T08:30:36;5.90;;;2.80;;
5845;SDS011;2949;50.778;7.094;2023-07-31T08:33:01;5.93;;;2.87;;
5845;SDS011;2949;50.778;7.094;2023-07-31T08:35:27;6.33;;;2.93;;
5845;SDS011;2949;50.778;7.094;2023-07-31T08:37:53;7.30;;;2.80;;
5845;SDS011;2949;50.778;7.094;2023-07-31T08:40:19;7.60;;;3.37;;
5845;SDS011;2949;50.778;7.094;2023-07-31T08:42:46;6.33;;;3.00;;
5845;SDS011;2949;50.778;7.094;2023-07-31T08:45:15;5.77;;;2.70;;
5845;SDS011;2949;50.778;7.094;2023-07-31T08:47:44;6.87;;;3.00;;
5845;SDS011;2949;50.778;7.094;2023-07-31T08:50:12;3.90;;;2.67;;
5845;SDS011;2949;50.778;7.094;2023-07-31T08:52:38;7.37;;;2.90;;
5845;SDS011;2949;50.778;7.094;2023-07-31T08:55:05;5.70;;;2.87;;
5845;SDS011;2949;50.778;7.094;2023-07-31T08:57:31;5.23;;;2.37;;
5845;SDS011;2949;50.778;7.094;2023-07-31T08:59:59;4.83;;;2.40;;
5845;SDS011;2949;50.778;7.094;2023-07-31T09:02:25;6.90;;;3.07;;
5845;SDS011;2949;50.778;7.094;2023-07-31T09:04:58;3.30;;;2.70;;
5845;SDS011;2949;50.778;7.094;2023-07-31T09:07:24;7.63;;;2.63;;
5845;SDS011;2949;50.778;7.094;2023-07-31T09:09:50;7.23;;;3.43;;
5845;SDS011;2949;50.778;7.094;2023-07-31T09:12:15;5.47;;;2.63;;
5845;SDS011;2949;50.778;7.094;2023-07-31T09:14:42;8.30;;;2.90;;
5845;SDS011;2949;50.778;7.094;2023-07-31T09:17:10;3.83;;;2.50;;
5845;SDS011;2949;50.778;7.094;2023-07-31T09:19:36;4.90;;;3.00;;
5845;SDS011;2949;50.778;7.094;2023-07-31T09:22:05;5.10;;;2.90;;
5845;SDS011;2949;50.778;7.094;2023-07-31T09:24:32;5.03;;;2.97;;
5845;SDS011;2949;50.778;7.094;2023-07-31T09:26:59;4.17;;;2.60;;
5845;SDS011;2949;50.778;7.094;2023-07-31T09:29:26;4.20;;;2.70;;
5845;SDS011;2949;50.778;7.094;2023-07-31T09:31:53;5.37;;;2.80;;
5845;SDS011;2949;50.778;7.094;2023-07-31T09:34:19;5.07;;;2.30;;
5845;SDS011;2949;50.778;7.094;2023-07-31T09:36:46;8.70;;;2.90;;
5845;SDS011;2949;50.778;7.094;2023-07-31T09:39:14;5.00;;;2.80;;
5845;SDS011;2949;50.778;7.094;2023-07-31T09:41:44;6.43;;;2.47;;
5845;SDS011;2949;50.778;7.094;2023-07-31T09:44:12;6.70;;;2.57;;
5845;SDS011;2949;50.778;7.094;2023-07-31T09:46:38;5.40;;;3.13;;
5845;SDS011;2949;50.778;7.094;2023-07-31T09:49:07;8.80;;;2.90;;
5845;SDS011;2949;50.778;7.094;2023-07-31T09:51:38;7.53;;;2.97;;
5845;SDS011;2949;50.778;7.094;2023-07-31T09:54:08;6.97;;;3.40;;
5845;SDS011;2949;50.778;7.094;2023-07-31T09:56:36;8.83;;;2.87;;
5845;SDS011;2949;50.778;7.094;2023-07-31T09:59:14;7.70;;;2.07;;
5845;SDS011;2949;50.778;7.094;2023-07-31T10:01:41;7.90;;;3.23;;
5845;SDS011;2949;50.778;7.094;2023-07-31T10:04:08;14.57;;;3.00;;
5845;SDS011;2949;50.778;7.094;2023-07-31T10:06:35;8.97;;;2.87;;
5845;SDS011;2949;50.778;7.094;2023-07-31T10:09:05;4.87;;;2.70;;
5845;SDS011;2949;50.778;7.094;2023-07-31T10:11:41;4.80;;;2.50;;
5845;SDS011;2949;50.778;7.094;2023-07-31T10:14:10;5.57;;;2.23;;
5845;SDS011;2949;50.778;7.094;2023-07-31T10:16:37;5.53;;;2.07;;
5845;SDS011;2949;50.778;7.094;2023-07-31T10:19:03;2.97;;;1.43;;
5845;SDS011;2949;50.778;7.094;2023-07-31T10:21:29;3.67;;;1.40;;
5845;SDS011;2949;50.778;7.094;2023-07-31T10:23:59;3.50;;;2.00;;
5845;SDS011;2949;50.778;7.094;2023-07-31T10:26:27;2.57;;;1.60;;
5845;SDS011;2949;50.778;7.094;2023-07-31T10:28:53;2.60;;;1.37;;
5845;SDS011;2949;50.778;7.094;2023-07-31T10:31:19;6.00;;;1.60;;
5845;SDS011;2949;50.778;7.094;2023-07-31T10:33:45;2.07;;;1.77;;
5845;SDS011;2949;50.778;7.094;2023-07-31T10:36:17;4.73;;;1.97;;
5845;SDS011;2949;50.778;7.094;2023-07-31T10:38:45;5.50;;;1.80;;
5845;SDS011;2949;50.778;7.094;2023-07-31T10:41:11;2.73;;;1.70;;
5845;SDS011;2949;50.778;7.094;2023-07-31T10:43:37;2.00;;;1.67;;
5845;SDS011;2949;50.778;7.094;2023-07-31T10:46:07;2.13;;;1.63;;
5845;SDS011;2949;50.778;7.094;2023-07-31T10:48:41;2.20;;;1.60;;
5845;SDS011;2949;50.778;7.094;2023-07-31T10:51:08;3.13;;;1.50;;
5845;SDS011;2949;50.778;7.094;2023-07-31T10:53:37;3.53;;;1.30;;
5845;SDS011;2949;50.778;7.094;2023-07-31T10:58:30;2.07;;;1.50;;
5845;SDS011;2949;50.778;7.094;2023-07-31T11:01:00;2.00;;;1.10;;
5845;SDS011;2949;50.778;7.094;2023-07-31T11:03:43;2.10;;;1.37;;
5845;SDS011;2949;50.778;7.094;2023-07-31T11:06:10;0.90;;;0.70;;
5845;SDS011;2949;50.778;7.094;2023-07-31T11:08:40;2.27;;;1.20;;
5845;SDS011;2949;50.778;7.094;2023-07-31T11:11:08;3.87;;;1.37;;
5845;SDS011;2949;50.778;7.094;2023-07-31T11:13:42;2.60;;;1.20;;
5845;SDS011;2949;50.778;7.094;2023-07-31T11:16:11;1.33;;;1.03;;
5845;SDS011;2949;50.778;7.094;2023-07-31T11:18:38;2.03;;;1.40;;
5845;SDS011;2949;50.778;7.094;2023-07-31T11:21:18;2.63;;;1.23;;
5845;SDS011;2949;50.778;7.094;2023-07-31T11:23:46;1.33;;;1.17;;
5845;SDS011;2949;50.778;7.094;2023-07-31T11:26:12;2.57;;;1.47;;
5845;SDS011;2949;50.778;7.094;2023-07-31T11:28:37;2.70;;;1.30;;
5845;SDS011;2949;50.778;7.094;2023-07-31T11:31:04;2.47;;;1.27;;
5845;SDS011;2949;50.778;7.094;2023-07-31T11:33:33;2.23;;;1.10;;
5845;SDS011;2949;50.778;7.094;2023-07-31T11:35:59;2.60;;;1.30;;
5845;SDS011;2949;50.778;7.094;2023-07-31T11:38:28;0.80;;;0.80;;
5845;SDS011;2949;50.778;7.094;2023-07-31T11:40:56;1.27;;;1.00;;
5845;SDS011;2949;50.778;7.094;2023-07-31T11:43:23;5.07;;;1.10;;
5845;SDS011;2949;50.778;7.094;2023-07-31T11:45:49;0.70;;;0.70;;
5845;SDS011;2949;50.778;7.094;2023-07-31T11:48:29;1.37;;;0.93;;
5845;SDS011;2949;50.778;7.094;2023-07-31T11:51:00;2.57;;;1.00;;
5845;SDS011;2949;50.778;7.094;2023-07-31T11:53:37;1.17;;;1.00;;
5845;SDS011;2949;50.778;7.094;2023-07-31T11:56:11;2.50;;;1.13;;
5845;SDS011;2949;50.778;7.094;2023-07-31T11:58:38;1.47;;;0.60;;
5845;SDS011;2949;50.778;7.094;2023-07-31T12:01:05;0.73;;;0.73;;
5845;SDS011;2949;50.778;7.094;2023-07-31T12:03:32;0.80;;;0.80;;
5845;SDS011;2949;50.778;7.094;2023-07-31T12:05:58;1.10;;;0.67;;
5845;SDS011;2949;50.778;7.094;2023-07-31T12:08:25;1.10;;;0.90;;
5845;SDS011;2949;50.778;7.094;2023-07-31T12:10:53;2.00;;;0.73;;
5845;SDS011;2949;50.778;7.094;2023-07-31T12:13:26;2.67;;;1.00;;
5845;SDS011;2949;50.778;7.094;2023-07-31T12:15:56;2.23;;;1.10;;
5845;SDS011;2949;50.778;7.094;2023-07-31T12:18:23;1.47;;;0.70;;
5845;SDS011;2949;50.778;7.094;2023-07-31T12:20:57;1.80;;;0.83;;
5845;SDS011;2949;50.778;7.094;2023-07-31T12:23:28;3.63;;;2.93;;
5845;SDS011;2949;50.778;7.094;2023-07-31T12:26:05;4.30;;;1.13;;
5845;SDS011;2949;50.778;7.094;2023-07-31T12:28:44;1.13;;;1.03;;
5845;SDS011;2949;50.778;7.094;2023-07-31T12:31:21;4.27;;;1.67;;
5845;SDS011;2949;50.778;7.094;2023-07-31T12:33:48;2.30;;;1.60;;
5845;SDS011;2949;50.778;7.094;2023-07-31T12:36:16;1.60;;;1.50;;
5845;SDS011;2949;50.778;7.094;2023-07-31T12:38:43;1.47;;;1.37;;
5845;SDS011;2949;50.778;7.094;2023-07-31T12:41:10;1.53;;;1.30;;
5845;SDS011;2949;50.778;7.094;2023-07-31T12:43:36;1.73;;;1.43;;
5845;SDS011;2949;50.778;7.094;2023-07-31T12:46:03;1.63;;;1.53;;
5845;SDS011;2949;50.778;7.094;2023-07-31T12:48:29;4.97;;;2.27;;
5845;SDS011;2949;50.778;7.094;2023-07-31T12:50:54;1.80;;;1.70;;
5845;SDS011;2949;50.778;7.094;2023-07-31T12:53:20;2.40;;;1.87;;
5845;SDS011;2949;50.778;7.094;2023-07-31T12:55:46;2.80;;;1.87;;
5845;SDS011;2949;50.778;7.094;2023-07-31T12:58:11;2.43;;;1.80;;
5845;SDS011;2949;50.778;7.094;2023-07-31T13:00:37;2.00;;;1.90;;
5845;SDS011;2949;50.778;7.094;2023-07-31T13:03:03;5.03;;;2.40;;
5845;SDS011;2949;50.778;7.094;2023-07-31T13:05:28;4.57;;;1.90;;
5845;SDS011;2949;50.778;7.094;2023-07-31T13:07:54;2.57;;;2.20;;
5845;SDS011;2949;50.778;7.094;2023-07-31T13:10:20;2.23;;;2.03;;
5845;SDS011;2949;50.778;7.094;2023-07-31T13:12:46;3.43;;;2.83;;
5845;SDS011;2949;50.778;7.094;2023-07-31T13:15:12;4.57;;;2.73;;
5845;SDS011;2949;50.778;7.094;2023-07-31T13:17:38;2.57;;;2.10;;
5845;SDS011;2949;50.778;7.094;2023-07-31T13:20:03;3.53;;;2.30;;
5845;SDS011;2949;50.778;7.094;2023-07-31T13:22:29;4.20;;;3.10;;
5845;SDS011;2949;50.778;7.094;2023-07-31T13:24:55;2.70;;;2.40;;
5845;SDS011;2949;50.778;7.094;2023-07-31T13:27:20;3.37;;;2.17;;
5845;SDS011;2949;50.778;7.094;2023-07-31T13:29:50;2.40;;;2.20;;
5845;SDS011;2949;50.778;7.094;2023-07-31T13:32:16;5.83;;;2.20;;
5845;SDS011;2949;50.778;7.094;2023-07-31T13:34:43;4.27;;;2.50;;
5845;SDS011;2949;50.778;7.094;2023-07-31T13:37:09;2.20;;;2.00;;
5845;SDS011;2949;50.778;7.094;2023-07-31T13:39:34;2.23;;;2.03;;
5845;SDS011;2949;50.778;7.094;2023-07-31T13:42:01;3.90;;;2.60;;
5845;SDS011;2949;50.778;7.094;2023-07-31T13:44:28;2.03;;;1.83;;
5845;SDS011;2949;50.778;7.094;2023-07-31T13:46:53;1.77;;;1.37;;
5845;SDS011;2949;50.778;7.094;2023-07-31T13:49:19;3.93;;;1.70;;
5845;SDS011;2949;50.778;7.094;2023-07-31T13:51:44;2.83;;;1.40;;
5845;SDS011;2949;50.778;7.094;2023-07-31T13:54:11;4.20;;;1.23;;
5845;SDS011;2949;50.778;7.094;2023-07-31T13:56:36;2.40;;;1.43;;
5845;SDS011;2949;50.778;7.094;2023-07-31T13:59:03;2.17;;;1.40;;
5845;SDS011;2949;50.778;7.094;2023-07-31T14:01:28;2.27;;;1.57;;
5845;SDS011;2949;50.778;7.094;2023-07-31T14:03:54;19.10;;;1.87;;
5845;SDS011;2949;50.778;7.094;2023-07-31T14:06:20;1.60;;;1.50;;
5845;SDS011;2949;50.778;7.094;2023-07-31T14:08:46;1.63;;;1.53;;
5845;SDS011;2949;50.778;7.094;2023-07-31T14:11:11;2.20;;;1.53;;
5845;SDS011;2949;50.778;7.094;2023-07-31T14:13:37;3.70;;;1.50;;
5845;SDS011;2949;50.778;7.094;2023-07-31T14:16:02;3.07;;;2.00;;
5845;SDS011;2949;50.778;7.094;2023-07-31T14:18:28;1.83;;;1.73;;
5845;SDS011;2949;50.778;7.094;2023-07-31T14:20:53;2.20;;;2.00;;
5845;SDS011;2949;50.778;7.094;2023-07-31T14:23:19;2.20;;;2.10;;
5845;SDS011;2949;50.778;7.094;2023-07-31T14:25:45;6.13;;;1.97;;
5845;SDS011;2949;50.778;7.094;2023-07-31T14:28:11;2.73;;;2.07;;
5845;SDS011;2949;50.778;7.094;2023-07-31T14:30:37;2.30;;;1.47;;
5845;SDS011;2949;50.778;7.094;2023-07-31T14:33:02;2.10;;;1.90;;
5845;SDS011;2949;50.778;7.094;2023-07-31T14:35:28;1.57;;;1.47;;
5845;SDS011;2949;50.778;7.094;2023-07-31T14:37:54;1.93;;;1.37;;
5845;SDS011;2949;50.778;7.094;2023-07-31T14:40:19;2.93;;;1.43;;
5845;SDS011;2949;50.778;7.094;2023-07-31T14:42:45;1.87;;;1.77;;
5845;SDS011;2949;50.778;7.094;2023-07-31T14:45:10;1.50;;;1.40;;
5845;SDS011;2949;50.778;7.094;2023-07-31T14:47:36;3.43;;;1.77;;
5845;SDS011;2949;50.778;7.094;2023-07-31T14:50:02;2.00;;;1.80;;
5845;SDS011;2949;50.778;7.094;2023-07-31T14:52:28;1.87;;;1.67;;
5845;SDS011;2949;50.778;7.094;2023-07-31T14:54:54;3.60;;;2.20;;
5845;SDS011;2949;50.778;7.094;2023-07-31T14:57:19;3.60;;;1.73;;
5845;SDS011;2949;50.778;7.094;2023-07-31T14:59:45;3.80;;;1.60;;
5845;SDS011;2949;50.778;7.094;2023-07-31T15:02:12;2.30;;;1.90;;
5845;SDS011;2949;50.778;7.094;2023-07-31T15:04:38;1.53;;;1.43;;
5845;SDS011;2949;50.778;7.094;2023-07-31T15:07:04;4.00;;;1.90;;
5845;SDS011;2949;50.778;7.094;2023-07-31T15:09:29;3.57;;;1.60;;
5845;SDS011;2949;50.778;7.094;2023-07-31T15:11:55;1.67;;;1.57;;
5845;SDS011;2949;50.778;7.094;2023-07-31T15:14:21;3.43;;;2.00;;
5845;SDS011;2949;50.778;7.094;2023-07-31T15:16:47;4.53;;;1.87;;
5845;SDS011;2949;50.778;7.094;2023-07-31T15:19:12;5.20;;;2.20;;
5845;SDS011;2949;50.778;7.094;2023-07-31T15:21:39;1.70;;;1.37;;